Time;durP1;ratioP1;P1;durP2;ratioP2;P2;SDS_P1;SDS_P2;PMS_P1;PMS_P2;Temp;Humidity;BMP_temperature;BMP_pressure;BME280_temperature;BME280_humidity;BME280_pressure;Samples;Min_cycle;Max_cycle;Signal;HPM_P1;HPM_P2
2022/09/11 00:01:06;;;;;;;5.13;4.70;;;14.50;99.90;;;;;;5075943;28;20439;-73
2022/09/11 00:03:35;;;;;;;5.23;4.70;;;14.60;99.90;;;;;;5093024;28;20455;-75
2022/09/11 00:06:03;;;;;;;5.90;5.40;;;14.70;99.90;;;;;;5073155;28;20405;-74
2022/09/11 00:08:30;;;;;;;4.70;4.40;;;14.70;99.90;;;;;;5073349;28;20508;-73
2022/09/11 00:11:06;;;;;;;9.20;4.60;;;14.80;99.90;;;;;;5075010;28;20419;-70
2022/09/11 00:13:33;;;;;;;9.60;5.37;;;14.80;99.90;;;;;;5073311;28;20415;-69
2022/09/11 00:16:01;;;;;;;4.73;4.30;;;14.80;99.90;;;;;;5073378;28;20424;-74
2022/09/11 00:18:28;;;;;;;5.53;5.07;;;14.90;99.90;;;;;;5072932;28;20429;-74
2022/09/11 00:20:56;;;;;;;5.80;4.80;;;15.00;99.90;;;;;;5091598;28;20423;-75
2022/09/11 00:23:24;;;;;;;6.03;5.23;;;15.00;99.90;;;;;;5093657;28;20487;-75
2022/09/11 00:25:54;;;;;;;4.60;4.30;;;15.10;99.90;;;;;;5075714;28;20420;-71
2022/09/11 00:28:22;;;;;;;4.73;4.40;;;15.10;99.90;;;;;;5091715;28;20435;-70
2022/09/11 00:31:06;;;;;;;5.70;4.33;;;15.20;99.90;;;;;;5076969;28;20525;-74
2022/09/11 00:33:43;;;;;;;;;;;;;;;;;;;;;
2022/09/11 00:36:16;;;;;;;5.73;4.60;;;15.10;99.90;;;;;;5092025;28;20392;-75
2022/09/11 00:38:42;;;;;;;5.07;4.10;;;15.10;99.90;;;;;;5084418;28;20441;-70
2022/09/11 00:41:19;;;;;;;5.70;5.20;;;15.10;99.90;;;;;;5072924;28;20413;-71
2022/09/11 00:43:54;;;;;;;6.37;4.17;;;15.10;99.90;;;;;;5081209;28;20462;-75
2022/09/11 00:46:40;;;;;;;6.10;4.80;;;15.20;99.90;;;;;;5092504;28;20400;-70
2022/09/11 00:49:14;;;;;;;4.37;4.00;;;15.20;99.90;;;;;;5081945;28;20435;-73
2022/09/11 00:51:42;;;;;;;5.07;4.43;;;15.20;99.90;;;;;;5073161;28;20404;-70
2022/09/11 00:54:13;;;;;;;5.70;4.60;;;15.20;99.90;;;;;;5082808;28;20419;-75
2022/09/11 00:56:42;;;;;;;5.03;4.63;;;15.20;99.90;;;;;;5092609;28;20431;-75
2022/09/11 00:59:10;;;;;;;5.93;5.30;;;15.20;99.90;;;;;;5088909;28;21042;-74
2022/09/11 01:01:36;;;;;;;4.83;4.50;;;15.20;99.90;;;;;;5093337;28;20396;-75
2022/09/11 01:04:07;;;;;;;4.77;4.40;;;15.20;99.90;;;;;;5092362;28;20516;-70
2022/09/11 01:06:33;;;;;;;4.53;4.13;;;15.20;99.90;;;;;;5091939;28;20403;-74
2022/09/11 01:08:59;;;;;;;4.47;4.07;;;15.20;99.90;;;;;;5089075;28;20439;-70
2022/09/11 01:11:50;;;;;;;4.30;3.70;;;15.10;99.90;;;;;;5092339;28;20404;-70
2022/09/11 01:14:46;;;;;;;4.33;4.00;;;15.10;99.90;;;;;;5092148;28;20510;-74
2022/09/11 01:17:26;;;;;;;10.07;3.77;;;15.10;99.90;;;;;;5091942;28;20414;-70
2022/09/11 01:20:27;;;;;;;3.53;3.23;;;15.00;99.90;;;;;;5054928;28;20447;-74
2022/09/11 01:23:06;;;;;;;5.57;3.80;;;15.00;99.90;;;;;;5076767;28;20536;-75
2022/09/11 01:26:01;;;;;;;4.00;3.70;;;14.90;99.90;;;;;;5094071;28;20498;-75
2022/09/11 01:42:30;;;;;;;9.40;3.50;;;14.90;99.90;;;;;;5096852;28;20584;-70
2022/09/11 01:44:56;;;;;;;4.10;3.30;;;15.00;99.90;;;;;;5096388;28;20463;-74
2022/09/11 01:47:24;;;;;;;4.00;3.67;;;15.00;99.90;;;;;;5091532;28;20412;-70
2022/09/11 01:50:00;;;;;;;3.23;3.03;;;15.00;99.90;;;;;;5096188;28;20435;-75
2022/09/11 01:52:38;;;;;;;5.07;3.77;;;15.10;99.90;;;;;;5095465;28;20415;-72
2022/09/11 01:55:13;;;;;;;5.97;4.40;;;15.10;99.90;;;;;;5096656;28;20448;-74
2022/09/11 01:57:48;;;;;;;7.30;3.23;;;15.20;99.90;;;;;;5094684;28;20442;-75
2022/09/11 02:00:15;;;;;;;3.87;3.57;;;15.20;99.90;;;;;;5096598;28;20501;-75
2022/09/11 02:03:15;;;;;;;3.90;3.00;;;15.20;99.90;;;;;;5091215;28;20454;-70
2022/09/11 02:05:50;;;;;;;3.43;3.13;;;15.20;99.90;;;;;;5075747;28;20409;-75
2022/09/11 02:08:30;;;;;;;7.20;4.17;;;15.20;99.90;;;;;;5087243;28;20474;-70
2022/09/11 02:11:04;;;;;;;3.73;3.40;;;15.30;99.90;;;;;;5096415;28;20399;-75
2022/09/11 02:13:53;;;;;;;3.70;3.40;;;15.30;99.90;;;;;;5095346;28;20416;-75
2022/09/11 02:16:45;;;;;;;3.80;3.00;;;15.30;99.90;;;;;;5033533;28;20431;-71
2022/09/11 02:19:15;;;;;;;2.90;2.70;;;15.30;99.90;;;;;;5058606;28;20436;-75
2022/09/11 02:21:43;;;;;;;3.20;2.70;;;15.30;99.90;;;;;;5076136;28;20944;-74
2022/09/11 02:24:14;;;;;;;3.70;3.47;;;15.40;99.90;;;;;;5077290;28;20455;-75
2022/09/11 02:26:46;;;;;;;3.50;2.80;;;15.40;99.90;;;;;;5094272;28;20396;-70
2022/09/11 02:29:14;;;;;;;2.70;2.50;;;15.40;99.90;;;;;;5095833;28;20768;-70
2022/09/11 02:31:41;;;;;;;3.07;2.87;;;15.40;99.90;;;;;;5090555;28;20503;-74
2022/09/11 02:34:10;;;;;;;3.00;2.80;;;15.50;99.90;;;;;;5095726;28;20422;-70
2022/09/11 02:37:01;;;;;;;3.17;2.87;;;15.50;99.90;;;;;;5093872;28;20435;-75
2022/09/11 02:39:50;;;;;;;2.67;2.47;;;15.50;99.90;;;;;;5095168;28;21007;-70
2022/09/11 02:42:34;;;;;;;2.60;2.50;;;15.40;99.90;;;;;;5089653;28;20447;-70
2022/09/11 02:45:28;;;;;;;2.93;2.73;;;15.40;99.90;;;;;;5090691;28;20459;-70
2022/09/11 02:48:00;;;;;;;2.80;2.60;;;15.30;99.90;;;;;;5094461;28;20484;-75
2022/09/11 02:50:40;;;;;;;2.90;2.60;;;15.30;99.90;;;;;;5094746;28;20450;-71
2022/09/11 02:53:12;;;;;;;3.70;2.50;;;15.30;99.90;;;;;;5095332;28;20427;-73
2022/09/11 02:56:17;;;;;;;2.90;2.40;;;15.20;99.90;;;;;;5080385;28;20420;-74
2022/09/11 02:58:49;;;;;;;5.97;2.43;;;15.20;99.90;;;;;;5071130;28;20483;-70
2022/09/11 03:01:15;;;;;;;9.80;2.43;;;15.10;99.90;;;;;;5093842;28;20426;-75
2022/09/11 03:03:45;;;;;;;2.10;2.00;;;15.10;99.90;;;;;;5094983;28;20504;-75
2022/09/11 03:06:21;;;;;;;2.37;2.20;;;15.00;99.90;;;;;;5075762;28;20478;-75
2022/09/11 03:08:50;;;;;;;2.10;2.00;;;15.00;99.90;;;;;;5074761;28;20835;-70
2022/09/11 03:11:17;;;;;;;2.27;2.17;;;15.00;99.90;;;;;;5092741;28;20416;-75
2022/09/11 03:13:44;;;;;;;5.30;2.13;;;15.00;99.90;;;;;;5095041;28;20404;-72
2022/09/11 03:16:11;;;;;;;2.20;2.00;;;14.90;99.90;;;;;;5076437;28;20522;-70
2022/09/11 03:18:37;;;;;;;1.83;1.73;;;14.90;99.90;;;;;;5074588;28;20450;-70
2022/09/11 03:21:04;;;;;;;4.53;3.07;;;14.80;99.90;;;;;;5093217;28;20796;-74
2022/09/11 03:23:33;;;;;;;2.00;1.90;;;14.80;99.90;;;;;;5094859;28;20516;-74
2022/09/11 03:26:01;;;;;;;2.13;2.03;;;14.80;99.90;;;;;;5093632;28;20447;-74
2022/09/11 03:28:30;;;;;;;2.40;2.20;;;14.70;99.90;;;;;;5094520;28;20420;-74
2022/09/11 03:30:59;;;;;;;3.70;2.30;;;14.70;99.90;;;;;;5077497;28;20422;-70
2022/09/11 03:33:26;;;;;;;3.20;2.83;;;14.70;99.90;;;;;;5073720;28;20404;-70
2022/09/11 03:35:53;;;;;;;2.00;1.90;;;14.70;99.90;;;;;;5078424;28;20417;-74
2022/09/11 03:38:22;;;;;;;2.30;2.17;;;14.70;99.90;;;;;;5073446;28;20520;-70
2022/09/11 03:40:48;;;;;;;4.13;2.13;;;14.80;99.90;;;;;;5056519;28;20428;-74
2022/09/11 03:43:16;;;;;;;4.50;2.13;;;14.80;99.90;;;;;;5074063;28;20456;-74
2022/09/11 03:45:43;;;;;;;2.13;2.00;;;14.80;99.90;;;;;;5090999;28;20502;-71
2022/09/11 03:48:11;;;;;;;1.80;1.70;;;14.80;99.90;;;;;;5092828;28;20904;-70
2022/09/11 03:50:37;;;;;;;2.17;2.07;;;14.80;99.90;;;;;;5078026;28;20420;-74
2022/09/11 03:53:10;;;;;;;2.13;1.93;;;14.80;99.90;;;;;;5073279;28;20404;-70
2022/09/11 03:55:36;;;;;;;2.23;2.13;;;14.80;99.90;;;;;;5088823;28;20178;-75
2022/09/11 03:58:05;;;;;;;2.17;1.97;;;14.80;99.90;;;;;;5093050;28;20423;-75
2022/09/11 04:00:31;;;;;;;2.37;2.17;;;14.80;99.90;;;;;;5079627;28;20428;-70
2022/09/11 04:02:58;;;;;;;4.93;2.30;;;14.80;99.90;;;;;;5073771;28;20367;-70
2022/09/11 04:05:24;;;;;;;1.93;1.80;;;14.80;99.90;;;;;;5085735;28;20882;-75
2022/09/11 04:07:51;;;;;;;2.60;2.40;;;14.80;99.90;;;;;;5093325;28;20463;-70
2022/09/11 04:10:18;;;;;;;1.90;1.80;;;14.80;99.90;;;;;;5064465;28;20421;-74
2022/09/11 04:12:47;;;;;;;2.30;2.10;;;14.80;99.90;;;;;;5073464;28;20424;-73
2022/09/11 04:15:13;;;;;;;2.80;2.60;;;14.80;99.90;;;;;;5083815;28;20420;-74
2022/09/11 04:17:43;;;;;;;2.17;2.07;;;14.80;99.90;;;;;;5092842;28;20462;-70
2022/09/11 04:20:12;;;;;;;2.10;2.00;;;14.80;99.90;;;;;;5084196;28;20565;-70
2022/09/11 04:22:39;;;;;;;3.27;3.07;;;14.80;99.90;;;;;;5073297;28;20409;-74
2022/09/11 04:28:35;;;;;;;4.10;3.70;;;14.70;99.90;;;;;;5013136;28;20417;-70
2022/09/11 04:31:02;;;;;;;5.60;4.40;;;14.70;99.90;;;;;;5009910;28;20828;-73
2022/09/11 04:33:38;;;;;;;8.43;4.87;;;14.60;99.90;;;;;;5084602;28;20431;-74
2022/09/11 04:36:09;;;;;;;3.60;3.30;;;14.60;99.90;;;;;;5092436;28;20419;-75
2022/09/11 04:38:36;;;;;;;3.70;3.30;;;14.60;99.90;;;;;;5076981;28;20445;-70
2022/09/11 04:41:05;;;;;;;2.93;2.83;;;14.70;99.90;;;;;;5073261;28;20757;-70
2022/09/11 04:43:39;;;;;;;5.80;3.40;;;14.70;99.90;;;;;;5087041;28;20451;-74
2022/09/11 04:46:10;;;;;;;3.50;3.30;;;14.70;99.90;;;;;;5054445;28;20459;-70
2022/09/11 04:48:37;;;;;;;3.30;3.10;;;14.60;99.90;;;;;;5087580;28;20435;-70
2022/09/11 04:51:05;;;;;;;3.80;3.50;;;14.60;99.90;;;;;;5092967;28;20491;-74
2022/09/11 04:53:37;;;;;;;3.20;3.00;;;14.60;99.90;;;;;;5091727;28;20427;-70
2022/09/11 04:56:12;;;;;;;4.00;3.13;;;14.60;99.90;;;;;;5091893;28;20463;-70
2022/09/11 04:58:38;;;;;;;4.40;3.37;;;14.60;99.90;;;;;;5092313;28;20446;-74
2022/09/11 05:01:13;;;;;;;4.77;3.50;;;14.60;99.90;;;;;;5091974;28;20418;-75
2022/09/11 05:03:45;;;;;;;3.17;2.97;;;14.60;99.90;;;;;;5078571;28;20995;-75
2022/09/11 05:06:15;;;;;;;3.60;3.30;;;14.60;99.90;;;;;;5071909;28;20450;-71
2022/09/11 05:08:46;;;;;;;3.47;3.17;;;14.50;99.90;;;;;;5068043;28;20440;-70
2022/09/11 05:11:13;;;;;;;4.10;3.80;;;14.50;99.90;;;;;;5092991;28;20431;-70
2022/09/11 05:13:40;;;;;;;4.20;3.90;;;14.50;99.90;;;;;;5079792;28;20413;-70
2022/09/11 05:16:12;;;;;;;5.23;4.07;;;14.50;99.90;;;;;;5071996;28;20432;-75
2022/09/11 05:18:58;;;;;;;4.07;3.60;;;14.50;99.90;;;;;;5085411;28;20439;-70
2022/09/11 05:21:25;;;;;;;4.70;4.30;;;14.50;99.90;;;;;;5092980;28;21167;-75
2022/09/11 05:23:59;;;;;;;4.13;3.77;;;14.60;99.90;;;;;;5078473;28;20527;-72
2022/09/11 05:26:31;;;;;;;4.47;4.07;;;14.60;99.90;;;;;;5071669;28;20908;-70
2022/09/11 05:29:08;;;;;;;4.20;3.90;;;14.70;99.90;;;;;;5086331;28;20493;-75
2022/09/11 05:31:43;;;;;;;4.27;3.67;;;14.70;99.90;;;;;;5087006;28;20507;-70
2022/09/11 05:34:49;;;;;;;4.50;4.10;;;14.80;99.90;;;;;;5072347;28;20401;-75
2022/09/11 05:37:15;;;;;;;4.50;4.10;;;14.80;1.00;;;;;;5081682;28;20426;-74
2022/09/11 05:39:41;;;;;;;4.97;4.50;;;14.80;99.90;;;;;;5092807;28;20533;-74
2022/09/11 05:42:07;;;;;;;4.13;3.83;;;14.90;1.00;;;;;;5083086;28;20503;-78
2022/09/11 05:44:36;;;;;;;4.10;3.57;;;14.90;1.00;;;;;;5071973;28;20430;-78
2022/09/11 05:47:13;;;;;;;;;;;;;;;;;;;;;
2022/09/11 05:49:39;;;;;;;6.40;4.33;;;15.00;1.00;;;;;;5092604;28;20423;-78
2022/09/11 05:52:16;;;;;;;;;;;;;;;;;;;;;
2022/09/11 05:54:42;;;;;;;7.50;4.80;;;15.10;1.00;;;;;;5092485;28;20421;-75
2022/09/11 05:57:08;;;;;;;5.40;4.93;;;15.10;1.00;;;;;;5090818;28;20435;-74
2022/09/11 05:59:43;;;;;;;5.17;4.77;;;15.10;1.00;;;;;;5092031;28;20518;-74
2022/09/11 06:02:10;;;;;;;5.60;5.07;;;15.20;1.00;;;;;;5081297;28;20432;-75
2022/09/11 06:04:36;;;;;;;7.03;5.40;;;15.20;1.00;;;;;;5072270;28;20514;-74
2022/09/11 06:07:25;;;;;;;5.57;5.00;;;15.30;1.00;;;;;;5080786;28;20419;-73
2022/09/11 06:09:59;;;;;;;5.67;5.17;;;15.30;1.00;;;;;;5091845;28;20436;-71
2022/09/11 06:12:28;;;;;;;6.53;5.90;;;15.30;1.00;;;;;;5082283;28;20443;-71
2022/09/11 06:14:59;;;;;;;6.20;5.70;;;15.40;1.00;;;;;;5075576;28;20457;-71
2022/09/11 06:17:28;;;;;;;5.40;4.93;;;15.40;1.00;;;;;;5075689;28;20416;-74
2022/09/11 06:19:54;;;;;;;5.90;5.40;;;15.40;1.00;;;;;;5075771;28;20443;-71
2022/09/11 06:22:20;;;;;;;8.27;5.57;;;15.40;1.00;;;;;;5070554;28;20447;-74
2022/09/11 06:24:49;;;;;;;6.27;5.77;;;15.50;1.00;;;;;;5095878;28;20451;-74
2022/09/11 06:27:16;;;;;;;7.47;6.50;;;15.50;1.00;;;;;;5083168;28;20424;-74
2022/09/11 06:29:45;;;;;;;10.73;6.90;;;15.50;1.00;;;;;;5075514;28;20423;-74
2022/09/11 06:32:12;;;;;;;6.83;6.10;;;15.50;1.00;;;;;;5092037;28;20934;-70
2022/09/11 06:34:40;;;;;;;7.50;6.80;;;15.50;1.00;;;;;;5095111;28;20407;-74
2022/09/11 06:37:06;;;;;;;8.07;7.27;;;15.50;1.00;;;;;;5078891;28;20420;-73
2022/09/11 06:39:33;;;;;;;7.60;6.90;;;15.50;1.00;;;;;;5075144;28;20420;-74
2022/09/11 06:42:09;;;;;;;;;;;;;;;;;;;;;
2022/09/11 06:44:40;;;;;;;7.90;7.20;;;15.60;1.00;;;;;;5095540;28;20446;-74
2022/09/11 06:47:09;;;;;;;8.97;8.07;;;15.60;1.00;;;;;;5083429;28;20451;-74
2022/09/11 06:49:34;;;;;;;8.67;7.87;;;15.60;1.00;;;;;;5075972;28;20427;-70
2022/09/11 06:52:04;;;;;;;7.87;6.80;;;15.70;1.00;;;;;;5094859;28;20404;-73
2022/09/11 06:54:30;;;;;;;8.90;6.90;;;15.70;1.00;;;;;;5094470;28;20227;-74
2022/09/11 06:56:56;;;;;;;9.87;7.23;;;15.70;1.00;;;;;;5092854;28;20526;-75
2022/09/11 06:59:23;;;;;;;9.67;6.70;;;15.80;1.00;;;;;;5066364;28;20507;-70
2022/09/11 07:01:53;;;;;;;8.07;7.10;;;15.80;1.00;;;;;;5074790;28;20412;-74
2022/09/11 07:04:19;;;;;;;8.03;7.33;;;15.90;1.00;;;;;;5084416;28;20462;-69
2022/09/11 07:06:49;;;;;;;7.23;6.53;;;15.90;1.00;;;;;;5094215;28;20404;-74
2022/09/11 07:09:15;;;;;;;7.47;6.70;;;15.90;1.00;;;;;;5085664;28;20193;-74
2022/09/11 07:11:52;;;;;;;8.13;7.17;;;15.90;1.00;;;;;;5074552;28;20416;-74
2022/09/11 07:14:22;;;;;;;8.03;7.23;;;15.90;1.00;;;;;;5083219;28;20435;-70
2022/09/11 07:16:49;;;;;;;7.67;6.87;;;16.00;1.00;;;;;;5093868;28;20502;-74
2022/09/11 07:20:03;;;;;;;8.33;6.87;;;16.00;1.00;;;;;;5068689;28;20483;-74
2022/09/11 07:30:09;;;;;;;7.43;6.73;;;16.10;1.00;;;;;;4998961;28;20469;-74
2022/09/11 07:32:36;;;;;;;8.10;6.83;;;16.10;1.00;;;;;;5030008;28;20415;-70
2022/09/11 07:35:03;;;;;;;8.07;7.27;;;16.10;1.00;;;;;;5086657;28;20415;-73
2022/09/11 07:37:29;;;;;;;7.03;6.33;;;16.10;1.00;;;;;;5093558;28;20418;-71
2022/09/11 07:39:55;;;;;;;7.53;6.60;;;16.10;1.00;;;;;;5076896;28;20417;-70
2022/09/11 07:42:21;;;;;;;7.67;6.27;;;16.20;1.00;;;;;;5074061;28;20404;-74
2022/09/11 07:44:47;;;;;;;8.10;7.40;;;16.20;1.00;;;;;;5089323;28;20459;-75
2022/09/11 07:47:15;;;;;;;9.70;6.30;;;16.30;1.00;;;;;;5093349;28;20166;-75
2022/09/11 07:49:41;;;;;;;8.40;7.03;;;16.30;1.00;;;;;;5080100;28;20944;-75
2022/09/11 07:52:08;;;;;;;7.43;6.73;;;16.40;1.00;;;;;;5073859;28;20401;-75
2022/09/11 07:54:37;;;;;;;6.83;6.23;;;16.40;1.00;;;;;;5083648;28;20193;-74
2022/09/11 07:57:03;;;;;;;8.13;6.33;;;16.50;1.00;;;;;;5076610;28;20452;-73
2022/09/11 07:59:29;;;;;;;7.17;6.50;;;16.60;1.00;;;;;;5081390;28;20491;-76
2022/09/11 08:01:57;;;;;;;9.20;6.87;;;16.70;1.00;;;;;;5076952;28;20416;-76
2022/09/11 08:04:29;;;;;;;6.80;6.13;;;16.70;1.00;;;;;;5060403;28;20484;-72
2022/09/11 08:06:57;;;;;;;7.40;6.50;;;16.70;1.00;;;;;;5072663;28;20470;-70
2022/09/11 08:09:26;;;;;;;8.70;5.77;;;16.80;1.00;;;;;;5073484;28;20421;-76
2022/09/11 08:12:06;;;;;;;8.13;7.33;;;16.80;1.00;;;;;;5073598;28;20396;-69
2022/09/11 08:14:32;;;;;;;6.53;5.93;;;16.90;1.00;;;;;;5056865;28;20417;-70
2022/09/11 08:16:58;;;;;;;6.90;5.33;;;16.90;1.00;;;;;;5055111;28;20411;-71
2022/09/11 08:19:24;;;;;;;9.27;7.03;;;16.90;1.00;;;;;;5055801;28;20189;-69
2022/09/11 08:22:09;;;;;;;5.20;4.80;;;16.90;1.00;;;;;;5073301;28;20178;-76
2022/09/11 08:24:34;;;;;;;6.60;6.00;;;16.90;1.00;;;;;;5073030;28;20444;-70
2022/09/11 08:27:10;;;;;;;7.17;5.63;;;16.90;1.00;;;;;;5072895;28;20405;-70
2022/09/11 08:29:38;;;;;;;8.53;7.73;;;17.00;1.00;;;;;;5073616;28;20189;-76
2022/09/11 08:32:05;;;;;;;7.47;6.77;;;16.80;1.00;;;;;;5073397;28;20453;-76
2022/09/11 08:34:30;;;;;;;8.13;7.33;;;16.90;1.00;;;;;;5073065;28;20405;-70
2022/09/11 08:36:58;;;;;;;6.47;5.97;;;16.90;1.00;;;;;;5072645;28;20404;-76
2022/09/11 08:39:27;;;;;;;6.57;5.97;;;16.80;1.00;;;;;;5073051;28;20189;-75
2022/09/11 08:42:15;;;;;;;6.30;5.70;;;16.80;1.00;;;;;;5072519;28;20409;-76
2022/09/11 08:45:02;;;;;;;6.07;5.47;;;16.80;1.00;;;;;;5072893;28;20463;-70
2022/09/11 08:47:32;;;;;;;6.80;5.97;;;16.80;1.00;;;;;;5072226;28;20488;-70
2022/09/11 08:50:24;;;;;;;6.53;5.10;;;16.80;1.00;;;;;;5073135;28;20429;-76
2022/09/11 08:52:50;;;;;;;5.70;5.27;;;16.70;1.00;;;;;;5073292;28;20405;-70
2022/09/11 08:55:34;;;;;;;5.00;4.50;;;16.70;1.00;;;;;;5073004;28;20405;-76
2022/09/11 08:58:19;;;;;;;4.70;4.30;;;16.70;1.00;;;;;;5071771;28;21030;-75
2022/09/11 09:01:07;;;;;;;4.17;3.80;;;16.70;1.00;;;;;;5072536;28;20424;-70
2022/09/11 09:03:52;;;;;;;4.37;3.83;;;16.80;1.00;;;;;;5072975;28;20452;-70
2022/09/11 09:06:55;;;;;;;3.80;3.50;;;16.80;1.00;;;;;;5072332;28;20412;-71
2022/09/11 09:09:58;;;;;;;4.10;3.70;;;16.80;1.00;;;;;;5072674;28;20416;-70
2022/09/11 09:12:44;;;;;;;3.70;3.50;;;16.80;1.00;;;;;;5072874;28;20415;-71
2022/09/11 09:15:38;;;;;;;5.63;5.13;;;16.80;1.00;;;;;;5072243;28;20519;-72
2022/09/11 09:18:33;;;;;;;4.57;4.17;;;16.90;1.00;;;;;;5072146;28;20434;-70
2022/09/11 09:21:28;;;;;;;4.90;4.53;;;17.20;1.00;;;;;;5045343;28;20427;-70
2022/09/11 09:24:00;;;;;;;4.40;4.10;;;17.50;1.00;;;;;;5042333;28;20467;-76
2022/09/11 09:26:35;;;;;;;4.37;3.03;;;17.60;1.00;;;;;;5072143;28;20396;-76
2022/09/11 09:29:08;;;;;;;4.53;3.60;;;17.70;1.00;;;;;;5072378;28;20434;-71
2022/09/11 09:31:37;;;;;;;2.97;2.77;;;17.70;1.00;;;;;;5072713;28;20412;-70
2022/09/11 09:34:18;;;;;;;3.10;2.80;;;17.90;1.00;;;;;;5072194;28;20408;-70
2022/09/11 09:37:12;;;;;;;3.03;2.83;;;18.10;1.00;;;;;;5054091;28;20495;-70
2022/09/11 09:39:38;;;;;;;3.13;2.93;;;18.30;99.90;;;;;;5072762;28;20432;-76
2022/09/11 09:43:00;;;;;;;2.63;2.43;;;18.60;99.90;;;;;;5054747;28;20419;-70
2022/09/11 09:45:42;;;;;;;2.53;2.33;;;18.80;99.90;;;;;;5030518;28;20461;-70
2022/09/11 09:48:10;;;;;;;2.73;2.53;;;18.80;99.90;;;;;;5071238;28;20475;-70
2022/09/11 09:50:43;;;;;;;2.60;2.40;;;19.00;99.90;;;;;;5075722;28;20392;-70
2022/09/11 09:53:31;;;;;;;2.70;2.50;;;19.10;99.90;;;;;;5076117;28;20765;-69
2022/09/11 09:55:59;;;;;;;2.80;1.80;;;19.70;99.90;;;;;;5075981;28;20420;-76
2022/09/11 09:58:34;;;;;;;2.27;2.07;;;20.50;99.90;;;;;;5058073;28;20424;-76
2022/09/11 10:01:01;;;;;;;1.50;1.40;;;20.30;99.90;;;;;;5076170;28;20443;-75
2022/09/11 10:03:27;;;;;;;1.60;1.50;;;20.30;99.90;;;;;;5076012;28;20440;-76
2022/09/11 10:05:56;;;;;;;1.73;1.60;;;20.20;99.90;;;;;;5075852;28;20400;-75
2022/09/11 10:08:36;;;;;;;1.40;1.30;;;20.50;99.90;;;;;;5075217;28;20520;-72
2022/09/11 10:11:31;;;;;;;1.67;1.57;;;20.50;92.20;;;;;;5075697;28;20396;-75
2022/09/11 10:13:57;;;;;;;1.50;1.40;;;20.30;50.20;;;;;;5075157;28;20487;-69
2022/09/11 10:17:04;;;;;;;1.70;1.60;;;19.70;17.60;;;;;;5075389;28;20855;-70
2022/09/11 10:19:41;;;;;;;1.50;1.40;;;19.30;14.30;;;;;;5075637;28;20507;-69
2022/09/11 10:22:33;;;;;;;1.50;1.37;;;19.30;23.90;;;;;;5076023;28;20484;-69
2022/09/11 10:25:00;;;;;;;2.13;1.50;;;20.00;25.40;;;;;;5071903;28;20547;-69
2022/09/11 10:27:28;;;;;;;1.50;1.20;;;20.60;17.80;;;;;;5074870;28;20757;-75
2022/09/11 10:29:55;;;;;;;1.50;1.40;;;21.20;17.00;;;;;;5075074;28;20396;-76
2022/09/11 10:32:25;;;;;;;1.50;1.33;;;22.00;1.00;;;;;;5075601;28;20776;-70
2022/09/11 10:34:52;;;;;;;1.30;1.20;;;22.30;1.00;;;;;;5075519;28;20397;-75
2022/09/11 10:37:30;;;;;;;2.40;1.30;;;22.20;1.00;;;;;;5074665;28;20416;-75
2022/09/11 10:40:17;;;;;;;1.80;1.70;;;22.20;1.00;;;;;;5075638;28;20495;-70
2022/09/11 10:42:45;;;;;;;1.57;1.47;;;21.90;1.00;;;;;;5075619;28;20470;-76
2022/09/11 10:45:16;;;;;;;1.50;1.40;;;21.60;1.00;;;;;;5075313;28;20448;-76
2022/09/11 10:47:45;;;;;;;1.40;1.30;;;21.20;1.00;;;;;;5073693;28;20530;-75
2022/09/11 10:50:19;;;;;;;1.73;1.43;;;20.60;1.00;;;;;;5075365;28;20401;-76
2022/09/11 10:52:56;;;;;;;1.20;1.10;;;20.10;1.00;;;;;;5075309;28;20428;-70
2022/09/11 10:55:35;;;;;;;2.27;1.77;;;19.60;1.00;;;;;;5057433;28;20427;-75
2022/09/11 11:01:05;;;;;;;1.30;1.20;;;18.80;1.00;;;;;;5075047;28;20476;-69
2022/09/11 11:04:21;;;;;;;1.63;1.53;;;18.60;1.00;;;;;;5056769;28;20482;-76
2022/09/11 11:07:12;;;;;;;1.60;1.50;;;18.40;1.00;;;;;;5074233;28;20400;-76
2022/09/11 11:09:50;;;;;;;2.30;1.43;;;18.40;1.00;;;;;;5074748;28;20777;-70
2022/09/11 11:13:07;;;;;;;3.33;1.83;;;18.60;1.00;;;;;;5056928;28;20495;-69
2022/09/11 11:15:56;;;;;;;1.90;1.80;;;19.30;1.00;;;;;;5056805;28;20420;-76
2022/09/11 11:18:33;;;;;;;2.70;1.47;;;19.30;1.00;;;;;;5056325;28;20842;-75
2022/09/11 11:21:19;;;;;;;2.67;1.83;;;19.10;1.00;;;;;;5074744;28;20495;-75
2022/09/11 11:23:50;;;;;;;2.73;2.20;;;19.10;1.00;;;;;;5073365;28;20456;-72
2022/09/11 11:26:52;;;;;;;4.67;1.90;;;19.20;1.00;;;;;;5073977;28;20392;-70
2022/09/11 11:29:55;;;;;;;2.87;1.90;;;19.30;1.00;;;;;;5074076;28;20499;-70
2022/09/11 11:32:48;;;;;;;2.50;2.17;;;19.50;1.00;;;;;;5056253;28;20424;-74
2022/09/11 11:35:22;;;;;;;1.83;1.73;;;19.50;1.00;;;;;;5056369;28;20416;-69
2022/09/11 11:37:52;;;;;;;2.03;1.93;;;19.40;1.00;;;;;;5073549;28;20432;-70
2022/09/11 11:40:28;;;;;;;2.63;2.17;;;19.20;1.00;;;;;;5074348;28;20407;-69
2022/09/11 11:43:12;;;;;;;2.33;2.07;;;19.10;1.00;;;;;;5073703;28;20409;-76
2022/09/11 11:45:50;;;;;;;2.20;2.10;;;18.90;1.00;;;;;;5074250;28;20409;-70
2022/09/11 11:48:38;;;;;;;2.03;1.93;;;18.90;1.00;;;;;;5073611;28;20421;-76
2022/09/11 11:51:14;;;;;;;2.13;1.50;;;18.70;1.00;;;;;;5056003;28;20412;-74
2022/09/11 11:54:01;;;;;;;3.10;2.47;;;18.50;1.00;;;;;;5074050;28;20473;-76
2022/09/11 11:56:43;;;;;;;1.50;1.40;;;18.40;1.00;;;;;;5055063;28;20424;-76
2022/09/11 11:59:29;;;;;;;2.33;1.77;;;18.40;1.00;;;;;;5073799;28;20452;-69
2022/09/11 12:02:19;;;;;;;1.70;1.60;;;18.50;1.00;;;;;;5055441;28;20921;-69
2022/09/11 12:04:55;;;;;;;1.73;1.63;;;18.60;1.00;;;;;;5055263;28;20547;-76
2022/09/11 12:07:30;;;;;;;2.13;1.40;;;18.80;1.00;;;;;;5055114;28;20416;-69
2022/09/11 12:09:58;;;;;;;1.67;1.50;;;19.10;1.00;;;;;;5073055;28;20418;-75
2022/09/11 12:12:32;;;;;;;1.60;1.50;;;19.40;1.00;;;;;;5073506;28;20409;-73
2022/09/11 12:15:08;;;;;;;1.40;1.30;;;19.60;1.00;;;;;;5073615;28;20407;-70
2022/09/11 12:21:30;;;;;;;1.70;1.47;;;20.50;1.00;;;;;;4935921;28;20418;-70
2022/09/11 12:23:59;;;;;;;1.40;1.30;;;21.00;1.00;;;;;;4942904;28;20576;-71
2022/09/11 12:26:30;;;;;;;4.93;1.40;;;21.50;1.00;;;;;;5071686;28;20420;-71
2022/09/11 12:29:14;;;;;;;1.33;1.23;;;22.00;1.00;;;;;;5073343;28;20912;-75
2022/09/11 12:31:49;;;;;;;1.60;1.50;;;22.20;1.00;;;;;;5073451;28;20405;-69
2022/09/11 12:34:22;;;;;;;2.20;1.10;;;21.70;1.00;;;;;;5072006;28;20404;-71
2022/09/11 12:37:03;;;;;;;1.30;1.20;;;21.30;1.00;;;;;;5072713;28;20458;-69
2022/09/11 12:39:49;;;;;;;1.10;0.90;;;21.70;1.00;;;;;;5072709;28;20474;-69
2022/09/11 12:42:24;;;;;;;2.10;1.30;;;22.50;1.00;;;;;;5071948;28;20534;-70
2022/09/11 12:44:50;;;;;;;1.30;1.20;;;23.70;1.00;;;;;;5073184;28;20537;-69
2022/09/11 12:47:39;;;;;;;1.00;0.80;;;24.70;1.00;;;;;;5072401;28;20834;-76
2022/09/11 12:50:05;;;;;;;1.93;1.57;;;25.50;1.00;;;;;;5072093;28;20198;-69
2022/09/11 12:52:49;;;;;;;1.17;1.00;;;25.20;1.00;;;;;;5071949;28;20465;-69
2022/09/11 12:55:33;;;;;;;4.30;1.10;;;24.70;1.00;;;;;;5073077;28;20673;-76
2022/09/11 12:58:05;;;;;;;1.20;1.00;;;24.50;1.00;;;;;;5053610;28;20531;-76
2022/09/11 13:00:38;;;;;;;1.30;1.07;;;24.50;1.00;;;;;;5072739;28;20392;-75
2022/09/11 13:03:05;;;;;;;2.77;1.30;;;23.90;1.00;;;;;;5054929;28;20405;-70
2022/09/11 13:05:38;;;;;;;1.50;1.40;;;23.20;1.00;;;;;;5072821;28;20852;-70
2022/09/11 13:08:33;;;;;;;1.50;1.40;;;22.50;1.00;;;;;;5054273;28;20436;-70
2022/09/11 13:11:37;;;;;;;1.40;1.30;;;22.20;1.00;;;;;;5052589;28;20412;-75
2022/09/11 13:14:05;;;;;;;1.17;1.07;;;22.10;1.00;;;;;;5054482;28;20408;-70
2022/09/11 13:16:35;;;;;;;1.20;1.10;;;22.10;1.00;;;;;;5053790;28;20412;-76
2022/09/11 13:19:16;;;;;;;5.63;1.40;;;22.30;1.00;;;;;;5072673;28;20824;-75
2022/09/11 13:21:44;;;;;;;2.60;1.43;;;22.60;1.00;;;;;;5074073;28;20395;-73
2022/09/11 13:24:33;;;;;;;1.30;0.97;;;22.70;1.00;;;;;;5076856;28;20527;-76
2022/09/11 13:27:16;;;;;;;1.63;1.00;;;22.90;1.00;;;;;;5058260;28;20411;-75
2022/09/11 13:29:43;;;;;;;1.30;1.20;;;22.80;1.00;;;;;;5058656;28;20477;-75
2022/09/11 13:32:13;;;;;;;1.30;1.10;;;23.00;1.00;;;;;;5076743;28;20995;-76
2022/09/11 13:34:43;;;;;;;1.80;1.50;;;23.20;1.00;;;;;;5076005;28;20396;-73
2022/09/11 13:37:20;;;;;;;1.30;1.20;;;23.20;1.00;;;;;;5075905;28;20404;-76
2022/09/11 13:39:49;;;;;;;3.83;1.00;;;22.90;1.00;;;;;;5058397;28;20428;-70
2022/09/11 13:42:24;;;;;;;1.37;1.27;;;22.70;1.00;;;;;;5076694;28;20396;-70
2022/09/11 13:44:55;;;;;;;1.43;1.30;;;22.50;1.00;;;;;;5058304;28;20459;-75
2022/09/11 13:47:23;;;;;;;1.20;1.07;;;21.80;1.00;;;;;;5057751;28;20400;-75
2022/09/11 13:49:58;;;;;;;1.20;1.10;;;21.30;1.00;;;;;;5058373;28;20432;-69
2022/09/11 13:52:26;;;;;;;2.03;1.20;;;21.10;1.00;;;;;;5076264;28;20411;-74
2022/09/11 13:54:56;;;;;;;1.43;1.10;;;20.90;1.00;;;;;;5058087;28;20442;-70
2022/09/11 13:57:27;;;;;;;1.37;1.20;;;20.80;1.00;;;;;;5057398;28;20442;-76
2022/09/11 13:59:57;;;;;;;1.57;1.47;;;20.40;1.00;;;;;;5076038;28;20932;-75
2022/09/11 14:02:42;;;;;;;1.50;1.40;;;20.10;1.00;;;;;;5058350;28;20415;-74
2022/09/11 14:05:20;;;;;;;3.73;1.73;;;20.00;1.00;;;;;;5075850;28;20455;-70
2022/09/11 14:08:00;;;;;;;1.60;1.20;;;19.90;1.00;;;;;;5075016;28;20396;-70